Station info - map view · info · telemetry · weather · raw · status · beacons · messages · bulletins · browse · moving · my account
Callsign, ship name or locator: Clear       
It is possible to search using wildcards (*?) after a prefix. Example: OH*
APRS station JO3IPC-9 - show graphs
Map loading...
Comment: TinyTrak3
Mic-E message: Off duty
Last status: TinyTrak3 v1.1
Location: 34°58.18' N 135°55.60' E - locator PM74XX12ER - show map - static map
4.0 miles Southwest bearing 215° from Kusatsu, Shiga, Japan [?]
4.1 miles Southeast bearing 126° from Ōtsu-shi, Shiga, Japan
30.7 miles Northeast bearing 52° from Ōsaka-shi, Ōsaka, Japan
57.3 miles West bearing 255° from Nagoya-shi, Aichi, Japan
Last position: 2019-04-01 13:33:17 EDT (22d 10h17m ago)
2019-04-02 02:33:17 JST local time at Kusatsu, Japan [?]
Altitude: 430 ft
Course: 74°
Speed: 43 MPH
Last path: JO3IPC-9>STUXQ8 via JL3YZQ-1*,qAR,JP3KWH-10 (good)
Positions stored: 20477
Stations near current position of JO3IPC-9 - show more
callsign distance last heard - EDT      callsign distance last heard - EDT
JO3GOU-91.3 miles 13°2019-04-20 21:21:48 JK3XKA-A2.2 miles 353°2019-04-23 07:17:45
JK3XKA-B2.2 miles 354°2019-04-18 07:01:07 JL3YZJ-102.3 miles 224°2019-04-23 23:41:36
JL3ZHD-I2.3 miles 360°2019-04-23 23:38:25 JK3XKA-H2.3 miles 358°2019-04-21 01:20:04
JK3XKA-92.6 miles 352°2019-04-13 18:13:17 JE3HCZ2.8 miles 359°2019-04-23 22:36:51
JO3DES-13.5 miles 22°2019-04-06 09:09:24 JP3PAG3.9 miles 302°2019-04-01 21:11:19
JP3PAC-133.9 miles 302°2019-04-02 22:07:17 JP3PAC4.0 miles 302°2019-04-18 11:46:27
JH3DYR-74.2 miles 277°2019-04-23 06:17:14 JP3UOC-74.9 miles 98°2019-04-20 23:40:30
JL3ZIA-75.0 miles 94°2019-04-20 23:16:37 JN3BME-75.0 miles 95°2019-04-20 23:24:17
JH3DYR-95.4 miles 315°2019-04-21 23:04:32 JL3YZQ-15.4 miles 307°2019-04-23 23:49:00
JP3ARJ5.6 miles 322°2019-04-14 10:15:28 JP3CWO-75.7 miles 94°2019-04-20 00:12:32
Stations which heard JO3IPC-9 directly on radio –
callsign pkts first heard - EDT last heard longest (tx => rx) longest at - EDT
JH4BTI-1 8 2019-04-01 06:09:58 2019-04-01 06:29:56 PM53LW > PM54MB 9.1 miles 37° 2019-04-01 06:09:58
JR5YBZ-3 14 2019-04-01 09:28:27 2019-04-01 10:45:09 PM64ML > PM63TX 49.6 miles 134° 2019-04-01 09:43:14
JA4FHV-10 10 2019-04-01 06:06:33 2019-04-01 06:21:49 PM53LW > PM53LX 3.7 miles 296° 2019-04-01 06:13:30
JH4GLG-1 1 2019-04-01 10:37:48 2019-04-01 10:37:48 PM64SN > PM64TN 4.6 miles 81° 2019-04-01 10:37:48
JI3YVA-1 10 2019-04-01 12:02:02 2019-04-01 12:30:18 PM74NT > PM74IT 23.7 miles 267° 2019-04-01 12:30:18
JF6YFU-3 4 2019-04-01 06:24:57 2019-04-01 06:32:09 PM54LA > PM53TO 48.1 miles 130° 2019-04-01 06:24:57
JH3YBD-1 18 2019-04-01 11:18:58 2019-04-01 12:40:39 PM74PU > PM75HD 40.0 miles 301° 2019-04-01 12:40:39
JH3PYJ-10 3 2019-04-01 13:16:28 2019-04-01 13:23:52 PM74VX > PM74VW 3.5 miles 250° 2019-04-01 13:23:52
JA3TMM-10 16 2019-04-01 11:31:26 2019-04-01 12:01:03 PM74DS > PM74HU 15.6 miles 74° 2019-04-01 11:31:26
JA4YYF-1 4 2019-04-01 10:46:56 2019-04-01 11:16:19 PM74BS > PM64RX 37.6 miles 294° 2019-04-01 11:16:19
JF6YCQ-1 1 2019-04-01 06:06:30 2019-04-01 06:06:30 PM53LW > PM53KU 7.7 miles 228° 2019-04-01 06:06:30
JE6ZIY-3 2 2019-03-31 20:07:05 2019-04-01 06:18:23 PM53LX > PM53JV 10.4 miles 243° 2019-04-01 06:18:23
JA3MAK 7 2019-04-01 11:25:14 2019-04-01 11:35:00 PM74CS > PM74ER 11.1 miles 108° 2019-04-01 11:25:14
JH3XVQ-1 2 2019-04-01 11:51:49 2019-04-01 11:54:30 PM74HU > PM74HU 3.5 miles 126° 2019-04-01 11:51:49
JE4YKP-3 3 2019-04-01 09:37:20 2019-04-01 09:59:05 PM64ML > PM64DI 44.1 miles 262° 2019-04-01 09:59:05
JE4YIB-10 5 2019-04-01 10:47:45 2019-04-01 10:56:58 PM64VQ > PM64VO 6.0 miles 197° 2019-04-01 10:56:58
JA5YRY-10 5 2019-04-01 09:31:24 2019-04-01 10:12:10 PM64OL > PM64LA 33.3 miles 205° 2019-04-01 10:12:10
JR4QII-1 5 2019-04-01 09:57:21 2019-04-01 10:05:20 PM64NL > PM64MO 9.0 miles 337° 2019-04-01 10:05:20
JR5YEM-10 1 2019-04-01 10:40:37 2019-04-01 10:40:37 PM64TN > PM74ED 51.5 miles 123° 2019-04-01 10:40:37
JP3PYY-10 2 2019-04-01 12:43:08 2019-04-01 12:44:39 PM74PT > PM74VP 30.2 miles 112° 2019-04-01 12:43:08
JQ3IGA-10 3 2019-04-01 12:40:20 2019-04-01 12:54:33 PM74PU > PM74TR 23.6 miles 111° 2019-04-01 12:40:20
JE6EET-10 4 2019-04-01 06:19:54 2019-04-01 06:34:11 PM54MC > PM53LV 16.9 miles 208° 2019-04-01 06:34:11
JR5YFF-10 8 2019-04-01 10:35:05 2019-04-01 12:13:06 PM74KU > PM74CA 68.5 miles 215° 2019-04-01 12:11:46
JL3YZQ-1 4 2019-04-01 13:27:50 2019-04-01 13:33:17 PM74XX > PM75WA 5.4 miles 307° 2019-04-01 13:33:17

Only position packets which were originated by the station are shown here. The range statistics show some extra long hops, because some digipeaters do not correctly add themselves to the digipeater path. Please check the raw packets.
About this site
This page shows real-time information collected from the Automatic Position Reporting System Internet network (APRS-IS). APRS is used by amateur (ham) radio operators to transmit real-time position information, weather data, telemetry and messages over the radio. A vehicle equipped with a GPS receiver, a VHF transmitter or HF transceiver and a small computer device called a tracker transmits it's location, speed and course in a small data packet, which is then received by a nearby iGate receiving site which forwards the packet on the Internet. Systems connected to the Internet can send information on the APRS-IS without a radio transmitter, or collect and display information transmitted anywhere in the world.
FAQ · Blog · Discussion group · Linking to aprs.fi · AIS sites · Service status · Database statistics · Advertising on aprs.fi · Technical details · API · Change log · Planned changes · Credits and thanks · Terms Of Service · iPhone/iPad APRS